createdAt,value
2017-12-17T00:01:57.967Z,84.50
2017-12-17T00:04:26.133Z,84.50
2017-12-17T00:06:54.304Z,85.20
2017-12-17T00:09:22.441Z,84.70
2017-12-17T00:11:50.620Z,84.60
2017-12-17T00:14:18.754Z,84.40
2017-12-17T00:16:46.876Z,84.20
2017-12-17T00:19:15.169Z,84.00
2017-12-17T00:21:43.323Z,83.90
2017-12-17T00:24:11.489Z,84.00
2017-12-17T00:26:39.620Z,83.70
2017-12-17T00:29:07.760Z,83.90
2017-12-17T00:31:35.924Z,83.80
2017-12-17T00:34:04.041Z,83.90
2017-12-17T00:36:32.344Z,83.90
2017-12-17T00:39:00.489Z,83.80
2017-12-17T00:41:28.632Z,83.80
2017-12-17T00:43:56.810Z,83.80
2017-12-17T00:46:24.981Z,83.80
2017-12-17T00:48:53.131Z,83.70
2017-12-17T00:51:21.271Z,83.60
2017-12-17T00:53:49.400Z,83.60
2017-12-17T00:56:17.675Z,83.30
2017-12-17T00:58:45.805Z,83.30
2017-12-17T01:01:13.961Z,83.50
2017-12-17T01:03:42.096Z,83.40
2017-12-17T01:06:10.258Z,83.20
2017-12-17T01:08:38.389Z,83.00
2017-12-17T01:11:06.524Z,83.00
2017-12-17T01:13:35.593Z,82.70
2017-12-17T01:16:03.721Z,82.80
2017-12-17T01:18:31.857Z,82.20
2017-12-17T01:21:00.010Z,82.80
2017-12-17T01:23:28.138Z,82.90
2017-12-17T01:25:56.296Z,83.10
2017-12-17T01:28:25.205Z,83.10
2017-12-17T01:30:53.514Z,83.10
2017-12-17T01:33:21.632Z,82.90
2017-12-17T01:35:50.543Z,83.10
2017-12-17T01:38:18.701Z,83.20
2017-12-17T01:40:47.772Z,84.00
2017-12-17T01:43:15.901Z,83.60
2017-12-17T01:45:44.052Z,84.30
2017-12-17T01:48:12.236Z,83.20
2017-12-17T01:50:40.393Z,83.20
2017-12-17T01:53:09.282Z,83.30
2017-12-17T01:55:38.196Z,83.00
2017-12-17T01:58:06.336Z,83.00
2017-12-17T02:00:34.601Z,82.60
2017-12-17T02:03:02.733Z,82.50
2017-12-17T02:05:30.866Z,82.70
2017-12-17T02:07:59.804Z,82.90
2017-12-17T02:10:27.941Z,82.90
2017-12-17T02:12:56.076Z,83.00
2017-12-17T02:15:24.267Z,83.00
2017-12-17T02:17:53.172Z,83.20
2017-12-17T02:20:21.317Z,83.20
2017-12-17T02:22:49.480Z,83.10
2017-12-17T02:25:17.692Z,83.40
2017-12-17T02:27:46.601Z,83.00
2017-12-17T02:30:14.788Z,83.00
2017-12-17T02:32:42.950Z,83.00
2017-12-17T02:35:11.831Z,82.60
2017-12-17T02:37:40.000Z,82.60
2017-12-17T02:40:08.157Z,82.50
2017-12-17T02:42:37.049Z,82.70
2017-12-17T02:45:06.074Z,83.20
2017-12-17T02:47:34.201Z,83.20
2017-12-17T02:50:02.377Z,82.90
2017-12-17T02:52:30.532Z,83.70
2017-12-17T02:54:58.657Z,82.70
2017-12-17T02:57:26.932Z,82.70
2017-12-17T02:59:55.078Z,82.60
2017-12-17T03:02:23.976Z,82.90
2017-12-17T03:04:53.004Z,83.00
2017-12-17T03:07:21.134Z,83.00
2017-12-17T03:09:50.052Z,83.20
2017-12-17T03:12:18.211Z,83.20
2017-12-17T03:14:47.164Z,83.50
2017-12-17T03:17:15.303Z,83.50
2017-12-17T03:19:43.448Z,83.70
2017-12-17T03:22:12.375Z,83.60
2017-12-17T03:24:40.520Z,83.60
2017-12-17T03:27:09.410Z,83.70
2017-12-17T03:29:37.579Z,83.70
2017-12-17T03:32:06.491Z,83.80
2017-12-17T03:34:34.624Z,83.80
2017-12-17T03:37:02.899Z,83.50
2017-12-17T03:39:31.061Z,83.80
2017-12-17T03:41:59.196Z,83.60
2017-12-17T03:44:27.368Z,83.70
2017-12-17T03:46:55.509Z,83.70
2017-12-17T03:49:24.400Z,83.20
2017-12-17T03:51:53.448Z,83.00
2017-12-17T03:54:21.583Z,83.00
2017-12-17T03:56:49.815Z,83.30
2017-12-17T03:59:17.951Z,83.10
2017-12-17T04:01:46.081Z,82.70
2017-12-17T04:04:15.001Z,82.40
2017-12-17T04:06:43.144Z,82.30
2017-12-17T04:09:11.301Z,82.40
2017-12-17T04:11:39.445Z,82.10
2017-12-17T04:14:07.727Z,82.10
2017-12-17T04:16:35.900Z,82.10
2017-12-17T04:19:04.045Z,82.10
2017-12-17T04:21:32.186Z,81.60
2017-12-17T04:24:01.080Z,81.90
2017-12-17T04:26:29.968Z,81.70
2017-12-17T04:28:58.904Z,82.00
2017-12-17T04:31:27.042Z,82.00
2017-12-17T04:33:55.947Z,82.20
2017-12-17T04:36:24.221Z,82.20
2017-12-17T04:38:52.404Z,82.20
2017-12-17T04:41:20.540Z,82.10
2017-12-17T04:43:48.744Z,82.40
2017-12-17T04:46:16.880Z,82.60
2017-12-17T04:48:45.013Z,82.80
2017-12-17T04:51:13.187Z,83.00
2017-12-17T04:53:41.344Z,83.00
2017-12-17T04:56:09.485Z,82.70
2017-12-17T04:58:38.412Z,82.60
2017-12-17T05:01:06.549Z,82.60
2017-12-17T05:03:35.575Z,82.50
2017-12-17T05:06:03.707Z,82.50
2017-12-17T05:08:32.667Z,82.00
2017-12-17T05:11:00.804Z,82.00
2017-12-17T05:13:28.973Z,82.10
2017-12-17T05:15:57.108Z,81.70
2017-12-17T05:18:25.284Z,81.50
2017-12-17T05:20:53.410Z,81.20
2017-12-17T05:23:21.540Z,80.90
2017-12-17T05:25:49.808Z,80.80
2017-12-17T05:28:17.939Z,80.90
2017-12-17T05:30:46.109Z,80.70
2017-12-17T05:33:14.266Z,80.90
2017-12-17T05:35:42.394Z,81.00
2017-12-17T05:38:10.548Z,80.50
2017-12-17T05:40:38.848Z,80.40
2017-12-17T05:43:06.976Z,80.40
2017-12-17T05:45:35.133Z,80.30
2017-12-17T05:48:03.264Z,80.30
2017-12-17T05:50:31.451Z,79.80
2017-12-17T05:53:00.359Z,79.10
2017-12-17T05:55:28.523Z,79.10
2017-12-17T05:57:57.581Z,79.20
2017-12-17T06:00:25.711Z,79.20
2017-12-17T06:02:53.908Z,78.80
2017-12-17T06:05:22.044Z,78.70
2017-12-17T06:07:50.976Z,78.30
2017-12-17T06:10:19.108Z,78.30
2017-12-17T06:12:48.004Z,77.90
2017-12-17T06:15:16.279Z,77.80
2017-12-17T06:17:44.407Z,78.50
2017-12-17T06:20:12.684Z,78.10
2017-12-17T06:22:40.821Z,77.70
2017-12-17T06:25:08.964Z,77.00
2017-12-17T06:27:37.905Z,77.80
2017-12-17T06:30:06.023Z,77.80
2017-12-17T06:32:34.949Z,78.80
2017-12-17T06:35:03.084Z,78.80
2017-12-17T06:37:32.124Z,78.80
2017-12-17T06:40:00.316Z,78.80
2017-12-17T06:42:28.459Z,78.80
2017-12-17T06:44:56.627Z,78.80
2017-12-17T06:47:24.755Z,78.90
2017-12-17T06:49:52.889Z,78.60
2017-12-17T06:52:21.176Z,78.30
2017-12-17T06:54:49.304Z,78.30
2017-12-17T06:57:18.321Z,78.30
2017-12-17T06:59:46.448Z,78.20
2017-12-17T07:02:14.611Z,78.50
2017-12-17T07:04:42.748Z,78.70
2017-12-17T07:07:11.036Z,78.70
2017-12-17T07:09:39.180Z,78.60
2017-12-17T07:12:07.308Z,78.60
2017-12-17T07:14:35.516Z,79.70
2017-12-17T07:17:04.425Z,79.10
2017-12-17T07:19:32.560Z,79.10
2017-12-17T07:22:00.747Z,79.30
2017-12-17T07:24:28.957Z,78.80
2017-12-17T07:26:57.057Z,79.70
2017-12-17T07:29:25.190Z,80.10
2017-12-17T07:31:53.452Z,80.20
2017-12-17T07:34:22.357Z,80.20
2017-12-17T07:36:50.520Z,80.30
2017-12-17T07:39:18.661Z,80.50
2017-12-17T07:41:46.936Z,80.90
2017-12-17T07:44:15.081Z,79.60
2017-12-17T07:46:43.254Z,79.60
2017-12-17T07:49:11.389Z,79.90
2017-12-17T07:51:39.691Z,79.50
2017-12-17T07:54:07.825Z,79.80
2017-12-17T07:56:36.765Z,79.40
2017-12-17T07:59:04.906Z,79.40
2017-12-17T08:01:33.063Z,79.30
2017-12-17T08:04:01.997Z,79.60
2017-12-17T08:06:30.125Z,79.50
2017-12-17T08:08:58.424Z,78.60
2017-12-17T08:11:26.573Z,78.80
2017-12-17T08:13:54.697Z,79.10
2017-12-17T08:16:22.868Z,78.90
2017-12-17T08:18:51.006Z,78.90
2017-12-17T08:21:19.908Z,79.10
2017-12-17T08:23:48.065Z,79.10
2017-12-17T08:26:17.051Z,78.70
2017-12-17T08:28:45.166Z,78.60
2017-12-17T08:31:13.303Z,78.40
2017-12-17T08:33:41.464Z,78.00
2017-12-17T08:36:09.601Z,78.00
2017-12-17T08:38:37.725Z,78.30
2017-12-17T08:41:06.669Z,78.60
2017-12-17T08:43:34.817Z,78.60
2017-12-17T08:46:02.965Z,78.70
2017-12-17T08:48:31.854Z,78.70
2017-12-17T08:51:00.979Z,78.20
2017-12-17T08:53:29.112Z,78.20
2017-12-17T08:55:57.275Z,77.40
2017-12-17T08:58:25.421Z,77.10
2017-12-17T09:00:53.576Z,76.70
2017-12-17T09:03:21.764Z,75.70
2017-12-17T09:05:49.913Z,76.10
2017-12-17T09:08:18.068Z,75.40
2017-12-17T09:10:46.207Z,74.70
2017-12-17T09:13:14.357Z,74.50
2017-12-17T09:15:42.517Z,74.80
2017-12-17T09:18:10.673Z,74.80
2017-12-17T09:20:38.956Z,74.40
2017-12-17T09:23:07.088Z,74.00
2017-12-17T09:25:35.237Z,74.20
2017-12-17T09:28:11.026Z,74.80
2017-12-17T09:30:39.988Z,73.30
2017-12-17T09:33:08.121Z,73.30
2017-12-17T09:35:36.309Z,72.50
2017-12-17T09:38:04.452Z,72.40
2017-12-17T09:40:32.625Z,72.20
2017-12-17T09:43:00.750Z,71.40
2017-12-17T09:45:28.912Z,71.10
2017-12-17T09:47:57.069Z,71.40
2017-12-17T09:50:25.222Z,71.80
2017-12-17T09:52:54.269Z,70.90
2017-12-17T09:55:22.402Z,70.90
2017-12-17T09:57:50.529Z,71.70
2017-12-17T10:00:18.693Z,71.00
2017-12-17T10:02:46.825Z,71.40
2017-12-17T10:08:21.889Z,71.70
2017-12-17T10:10:50.796Z,71.30
2017-12-17T10:13:18.945Z,71.10
2017-12-17T10:15:47.093Z,71.00
2017-12-17T10:18:15.221Z,71.70
2017-12-17T10:20:43.424Z,71.90
2017-12-17T10:23:12.337Z,71.30
2017-12-17T10:25:40.469Z,71.30
2017-12-17T10:28:08.664Z,70.50
2017-12-17T10:30:37.561Z,70.80
2017-12-17T10:33:05.720Z,70.80
2017-12-17T10:35:34.616Z,71.30
2017-12-17T10:38:03.544Z,70.40
2017-12-17T10:40:31.675Z,70.30
2017-12-17T10:42:59.991Z,71.20
2017-12-17T10:45:28.150Z,70.00
2017-12-17T10:47:56.286Z,69.70
2017-12-17T10:50:24.485Z,70.00
2017-12-17T10:52:53.373Z,70.40
2017-12-17T10:55:22.325Z,70.30
2017-12-17T10:57:50.486Z,70.20
2017-12-17T11:00:18.639Z,70.50
2017-12-17T11:02:46.818Z,69.40
2017-12-17T11:05:14.981Z,69.80
2017-12-17T11:07:43.916Z,68.30
2017-12-17T11:10:12.052Z,68.40
2017-12-17T11:12:40.193Z,68.50
2017-12-17T11:15:08.441Z,68.30
2017-12-17T11:17:36.583Z,68.30
2017-12-17T11:20:04.937Z,68.10
2017-12-17T11:22:33.077Z,68.70
2017-12-17T11:25:01.214Z,68.50
2017-12-17T11:27:29.375Z,68.10
2017-12-17T11:29:57.521Z,68.80
2017-12-17T11:32:26.456Z,69.00
2017-12-17T11:34:54.592Z,69.00
2017-12-17T11:37:22.745Z,68.30
2017-12-17T11:39:51.765Z,68.50
2017-12-17T11:42:19.930Z,68.40
2017-12-17T11:44:48.941Z,68.20
2017-12-17T11:47:17.076Z,68.20
2017-12-17T11:49:45.272Z,69.10
2017-12-17T11:52:14.158Z,69.10
2017-12-17T11:54:43.106Z,69.30
2017-12-17T11:57:11.284Z,69.30
2017-12-17T11:59:39.414Z,69.60
2017-12-17T12:02:07.661Z,69.90
2017-12-17T12:04:36.688Z,68.30
2017-12-17T12:07:04.749Z,68.20
2017-12-17T12:09:32.885Z,68.60
2017-12-17T12:12:01.075Z,68.20
2017-12-17T12:14:29.973Z,68.60
2017-12-17T12:16:58.116Z,68.60
2017-12-17T12:19:26.460Z,69.10
2017-12-17T12:21:54.684Z,69.70
2017-12-17T12:24:33.867Z,68.10
2017-12-17T12:27:02.032Z,68.10
2017-12-17T12:29:30.217Z,67.50
2017-12-17T12:31:58.333Z,67.70
2017-12-17T12:34:26.627Z,67.20
2017-12-17T12:36:55.531Z,67.90
2017-12-17T12:39:23.683Z,67.90
2017-12-17T12:41:52.623Z,67.90
2017-12-17T12:44:20.759Z,67.90
2017-12-17T12:46:49.726Z,68.60
2017-12-17T12:49:17.869Z,68.60
2017-12-17T12:51:46.009Z,68.10
2017-12-17T12:54:14.165Z,68.30
2017-12-17T12:56:43.079Z,68.70
2017-12-17T12:59:11.218Z,68.60
2017-12-17T13:01:39.360Z,68.10
2017-12-17T13:04:07.661Z,68.00
2017-12-17T13:06:35.799Z,68.30
2017-12-17T13:09:03.970Z,68.60
2017-12-17T13:11:32.110Z,68.00
2017-12-17T13:14:00.245Z,68.50
2017-12-17T13:16:28.406Z,68.60
2017-12-17T13:18:56.559Z,68.80
2017-12-17T13:21:24.873Z,69.80
2017-12-17T13:23:53.017Z,69.10
2017-12-17T13:26:21.158Z,69.00
2017-12-17T13:28:49.312Z,69.30
2017-12-17T13:31:18.208Z,68.00
2017-12-17T13:33:46.385Z,68.10
2017-12-17T13:36:15.284Z,69.50
2017-12-17T13:38:43.584Z,69.50
2017-12-17T13:41:11.737Z,69.00
2017-12-17T13:43:39.906Z,69.00
2017-12-17T13:46:08.052Z,69.40
2017-12-17T13:48:36.198Z,69.30
2017-12-17T13:51:04.406Z,69.50
2017-12-17T13:53:32.574Z,69.50
2017-12-17T13:56:01.531Z,70.20
2017-12-17T13:58:29.673Z,70.30
2017-12-17T14:00:57.830Z,70.40
2017-12-17T14:03:25.976Z,70.30
2017-12-17T14:05:54.910Z,70.30
2017-12-17T14:08:23.087Z,70.30
2017-12-17T14:10:51.261Z,70.50
2017-12-17T14:13:19.413Z,70.70
2017-12-17T14:15:48.324Z,69.70
2017-12-17T14:18:16.510Z,69.70
2017-12-17T14:20:44.630Z,69.70
2017-12-17T14:23:12.763Z,69.50
2017-12-17T14:25:40.931Z,70.10
2017-12-17T14:28:09.077Z,70.10
2017-12-17T14:30:37.340Z,70.40
2017-12-17T14:33:05.525Z,70.20
2017-12-17T14:35:33.725Z,70.40
2017-12-17T14:38:01.876Z,70.10
2017-12-17T14:40:30.067Z,70.10
2017-12-17T14:42:58.221Z,70.00
2017-12-17T14:45:27.255Z,69.70
2017-12-17T14:47:55.406Z,69.60
2017-12-17T14:50:23.577Z,69.80
2017-12-17T14:52:51.760Z,70.00
2017-12-17T14:55:19.885Z,69.70
2017-12-17T14:57:48.036Z,70.20
2017-12-17T15:00:16.302Z,70.00
2017-12-17T15:02:44.456Z,69.90
2017-12-17T15:05:12.632Z,70.20
2017-12-17T15:07:40.761Z,70.10
2017-12-17T15:10:09.697Z,70.30
2017-12-17T15:12:37.827Z,70.30
2017-12-17T15:15:06.906Z,70.10
2017-12-17T15:17:35.065Z,70.10
2017-12-17T15:20:03.195Z,70.00
2017-12-17T15:22:31.361Z,69.80
2017-12-17T15:24:59.510Z,69.60
2017-12-17T15:27:27.672Z,69.40
2017-12-17T15:29:55.838Z,69.50
2017-12-17T15:32:23.984Z,70.50
2017-12-17T15:34:52.276Z,69.40
2017-12-17T15:37:20.413Z,69.20
2017-12-17T15:39:48.570Z,69.20
2017-12-17T15:42:16.722Z,69.90
2017-12-17T15:44:44.847Z,70.40
2017-12-17T15:47:13.006Z,69.80
2017-12-17T15:49:41.144Z,70.00
2017-12-17T15:52:09.428Z,70.00
2017-12-17T15:54:38.387Z,69.80
2017-12-17T15:57:06.510Z,69.80
2017-12-17T15:59:34.632Z,69.80
2017-12-17T16:02:02.817Z,69.70
2017-12-17T16:04:30.955Z,69.80
2017-12-17T16:06:59.077Z,70.00
2017-12-17T16:09:27.276Z,70.00
2017-12-17T16:11:55.407Z,69.80
2017-12-17T16:14:23.604Z,69.60
2017-12-17T16:16:52.488Z,70.20
2017-12-17T16:19:21.381Z,69.80
2017-12-17T16:21:50.324Z,69.90
2017-12-17T16:24:18.465Z,69.90
2017-12-17T16:26:46.646Z,70.00
2017-12-17T16:29:14.785Z,70.00
2017-12-17T16:31:42.973Z,69.70
2017-12-17T16:34:11.910Z,69.90
2017-12-17T16:36:40.017Z,69.90
2017-12-17T16:39:08.952Z,70.10
2017-12-17T16:41:37.089Z,70.10
2017-12-17T16:44:05.356Z,70.10
2017-12-17T16:46:33.483Z,70.40
2017-12-17T16:49:01.682Z,70.30
2017-12-17T16:51:29.862Z,70.70
2017-12-17T16:53:58.009Z,70.80
2017-12-17T16:56:26.200Z,70.90
2017-12-17T16:58:54.335Z,71.00
2017-12-17T17:01:22.604Z,70.90
2017-12-17T17:03:50.733Z,70.90
2017-12-17T17:06:18.912Z,71.00
2017-12-17T17:08:47.047Z,70.80
2017-12-17T17:11:15.180Z,71.10
2017-12-17T17:13:44.118Z,71.50
2017-12-17T17:16:12.261Z,71.50
2017-12-17T17:18:40.568Z,71.80
2017-12-17T17:21:08.717Z,71.50
2017-12-17T17:23:36.852Z,71.40
2017-12-17T17:26:05.041Z,71.60
2017-12-17T17:28:33.939Z,71.70
2017-12-17T17:31:02.838Z,71.60
2017-12-17T17:33:31.015Z,72.30
2017-12-17T17:35:59.161Z,71.70
2017-12-17T17:38:27.288Z,71.90
2017-12-17T17:40:55.562Z,72.00
2017-12-17T17:43:23.720Z,72.30
2017-12-17T17:45:51.897Z,72.20
2017-12-17T17:48:20.057Z,72.30
2017-12-17T17:50:48.215Z,72.20
2017-12-17T17:53:17.264Z,73.10
2017-12-17T17:55:45.411Z,72.70
2017-12-17T17:58:13.624Z,72.60
2017-12-17T18:00:41.750Z,72.80
2017-12-17T18:03:09.917Z,72.90
2017-12-17T18:05:38.104Z,73.10
2017-12-17T18:08:06.262Z,74.00
2017-12-17T18:10:35.219Z,72.70
2017-12-17T18:13:03.348Z,72.70
2017-12-17T18:15:31.520Z,72.80
2017-12-17T18:17:59.664Z,72.70
2017-12-17T18:20:28.588Z,72.90
2017-12-17T18:22:56.759Z,72.90
2017-12-17T18:25:24.921Z,73.30
2017-12-17T18:27:53.167Z,72.80
2017-12-17T18:30:21.248Z,72.70
2017-12-17T18:32:50.177Z,72.50
2017-12-17T18:35:18.336Z,72.50
2017-12-17T18:37:46.480Z,72.20
2017-12-17T18:40:14.677Z,72.10
2017-12-17T18:42:43.584Z,72.00
2017-12-17T18:45:11.820Z,72.00
2017-12-17T18:47:39.956Z,72.30
2017-12-17T18:50:08.151Z,72.10
2017-12-17T18:52:36.302Z,71.60
2017-12-17T18:55:04.496Z,71.30
2017-12-17T18:57:32.657Z,71.60
2017-12-17T19:00:00.984Z,70.70
2017-12-17T19:02:29.150Z,70.90
2017-12-17T19:04:58.095Z,71.10
2017-12-17T19:07:26.242Z,71.10
2017-12-17T19:09:54.419Z,71.20
2017-12-17T19:12:22.570Z,71.20
2017-12-17T19:14:50.751Z,70.50
2017-12-17T19:17:18.888Z,70.80
2017-12-17T19:19:47.189Z,70.40
2017-12-17T19:22:16.125Z,70.30
2017-12-17T19:24:44.284Z,70.30
2017-12-17T19:27:12.498Z,70.60
2017-12-17T19:29:40.632Z,70.40
2017-12-17T19:32:08.800Z,70.60
2017-12-17T19:34:36.943Z,70.30
2017-12-17T19:37:05.909Z,69.70
2017-12-17T19:39:34.043Z,69.70
2017-12-17T19:42:02.185Z,70.50
2017-12-17T19:44:30.334Z,69.70
2017-12-17T19:46:58.477Z,70.10
2017-12-17T19:49:26.653Z,69.20
2017-12-17T19:51:54.787Z,69.70
2017-12-17T19:54:23.116Z,69.90
2017-12-17T19:56:51.264Z,69.90
2017-12-17T19:59:19.393Z,69.40
2017-12-17T20:01:48.358Z,69.10
2017-12-17T20:04:16.512Z,69.10
2017-12-17T20:06:44.660Z,69.50
2017-12-17T20:09:12.786Z,69.40
2017-12-17T20:11:40.929Z,69.40
2017-12-17T20:14:09.099Z,69.40
2017-12-17T20:16:37.234Z,69.00
2017-12-17T20:19:05.613Z,68.90
2017-12-17T20:21:33.691Z,69.40
2017-12-17T20:24:01.853Z,69.30
2017-12-17T20:26:30.064Z,69.70
2017-12-17T20:28:58.200Z,69.70
2017-12-17T20:31:26.356Z,69.20
2017-12-17T20:33:55.277Z,69.80
2017-12-17T20:36:23.630Z,69.00
2017-12-17T20:38:52.582Z,68.70
2017-12-17T20:41:20.728Z,68.80
2017-12-17T20:43:48.914Z,68.50
2017-12-17T20:46:17.052Z,68.40
2017-12-17T20:48:45.222Z,70.00
2017-12-17T20:51:13.382Z,69.60
2017-12-17T20:53:41.703Z,69.40
2017-12-17T20:56:09.858Z,69.50
2017-12-17T20:58:38.062Z,69.30
2017-12-17T21:01:06.192Z,69.50
2017-12-17T21:03:35.140Z,68.50
2017-12-17T21:06:03.417Z,68.60
2017-12-17T21:08:31.564Z,68.70
2017-12-17T21:10:59.717Z,68.80
2017-12-17T21:13:27.850Z,68.10
2017-12-17T21:15:56.061Z,67.50
2017-12-17T21:18:24.176Z,67.70
2017-12-17T21:20:52.315Z,66.70
2017-12-17T21:23:20.614Z,66.90
2017-12-17T21:25:48.742Z,67.70
2017-12-17T21:28:16.957Z,67.00
2017-12-17T21:30:45.101Z,67.40
2017-12-17T21:33:14.024Z,66.30
2017-12-17T21:35:42.184Z,66.20
2017-12-17T21:38:10.313Z,66.40
2017-12-17T21:40:38.591Z,66.40
2017-12-17T21:43:06.751Z,66.10
2017-12-17T21:45:34.886Z,66.30
2017-12-17T21:48:03.058Z,67.00
2017-12-17T21:50:31.196Z,67.10
2017-12-17T21:53:00.181Z,67.00
2017-12-17T21:55:28.303Z,66.90
2017-12-17T21:57:56.586Z,66.80
2017-12-17T22:00:24.715Z,66.20
2017-12-17T22:02:52.902Z,66.70
2017-12-17T22:05:21.055Z,67.00
2017-12-17T22:07:49.235Z,66.70
2017-12-17T22:10:18.127Z,66.70
2017-12-17T22:12:47.033Z,66.90
2017-12-17T22:15:15.221Z,66.90
2017-12-17T22:17:43.359Z,66.40
2017-12-17T22:20:11.637Z,66.50
2017-12-17T22:22:40.535Z,66.70
2017-12-17T22:25:09.437Z,66.90
2017-12-17T22:27:38.392Z,66.90
2017-12-17T22:30:06.501Z,67.00
2017-12-17T22:32:34.668Z,66.90
2017-12-17T22:35:03.580Z,67.00
2017-12-17T22:37:31.691Z,67.00
2017-12-17T22:39:59.892Z,67.10
2017-12-17T22:42:28.042Z,67.30
2017-12-17T22:44:56.194Z,66.70
2017-12-17T22:47:24.337Z,66.60
2017-12-17T22:49:52.512Z,66.60
2017-12-17T22:52:20.656Z,67.30
2017-12-17T22:54:49.713Z,67.60
2017-12-17T22:57:17.860Z,67.60
2017-12-17T22:59:46.001Z,67.70
2017-12-17T23:02:14.928Z,68.00
2017-12-17T23:04:43.068Z,68.00
2017-12-17T23:07:11.997Z,68.30
2017-12-17T23:09:48.171Z,68.30
2017-12-17T23:12:23.690Z,68.30
2017-12-17T23:14:51.959Z,68.20
2017-12-17T23:17:20.848Z,68.50
2017-12-17T23:19:49.010Z,68.50
2017-12-17T23:22:17.966Z,68.40
2017-12-17T23:24:46.125Z,68.40
2017-12-17T23:27:14.272Z,68.10
2017-12-17T23:29:42.425Z,68.10
2017-12-17T23:32:11.492Z,68.90
2017-12-17T23:34:39.644Z,68.90
2017-12-17T23:37:07.800Z,68.90
2017-12-17T23:39:35.928Z,68.60
2017-12-17T23:42:04.195Z,69.00
2017-12-17T23:44:32.332Z,69.20
2017-12-17T23:47:00.453Z,69.50
2017-12-17T23:49:29.520Z,69.30
2017-12-17T23:51:57.682Z,69.20
2017-12-17T23:54:25.809Z,69.00
2017-12-17T23:56:53.975Z,68.80
2017-12-17T23:59:22.864Z,68.50
